createdAt,value
2018-11-05T00:01:08.053Z,16.00
2018-11-05T00:03:38.679Z,15.67
2018-11-05T00:06:09.396Z,15.60
2018-11-05T00:08:39.715Z,14.43
2018-11-05T00:11:25.827Z,15.30
2018-11-05T00:13:56.546Z,13.67
2018-11-05T00:16:27.231Z,15.60
2018-11-05T00:18:58.816Z,15.90
2018-11-05T00:21:29.563Z,13.80
2018-11-05T00:24:00.453Z,15.30
2018-11-05T00:26:32.084Z,17.53
2018-11-05T00:29:03.536Z,17.43
2018-11-05T00:31:34.253Z,15.07
2018-11-05T00:34:05.747Z,16.00
2018-11-05T00:36:37.597Z,15.73
2018-11-05T00:39:11.401Z,15.13
2018-11-05T00:41:42.852Z,16.60
2018-11-05T00:44:13.743Z,16.90
2018-11-05T00:46:44.515Z,16.67
2018-11-05T00:49:15.131Z,15.33
2018-11-05T00:51:45.727Z,18.43
2018-11-05T00:54:16.349Z,16.73
2018-11-05T00:56:47.024Z,20.20
2018-11-05T00:59:17.753Z,17.90
2018-11-05T01:01:48.752Z,15.60
2018-11-05T01:04:19.429Z,19.17
2018-11-05T01:06:50.119Z,16.43
2018-11-05T01:09:20.799Z,17.73
2018-11-05T01:11:53.590Z,16.97
2018-11-05T01:14:24.633Z,18.27
2018-11-05T01:16:56.765Z,17.33
2018-11-05T01:19:28.786Z,15.83
2018-11-05T01:21:59.361Z,17.73
2018-11-05T01:24:30.155Z,17.63
2018-11-05T01:27:00.754Z,16.87
2018-11-05T01:29:31.392Z,17.00
2018-11-05T01:32:02.094Z,16.53
2018-11-05T01:34:32.752Z,17.73
2018-11-05T01:37:03.476Z,16.80
2018-11-05T01:39:34.275Z,18.33
2018-11-05T01:42:05.437Z,15.60
2018-11-05T01:44:36.837Z,16.60
2018-11-05T01:47:13.733Z,18.57
2018-11-05T01:49:45.104Z,19.63
2018-11-05T01:52:18.229Z,20.40
2018-11-05T01:54:51.287Z,20.57
2018-11-05T01:57:22.042Z,21.47
2018-11-05T01:59:52.639Z,25.13
2018-11-05T02:02:23.629Z,21.83
2018-11-05T02:04:55.663Z,19.50
2018-11-05T02:07:26.659Z,20.73
2018-11-05T02:09:57.480Z,20.80
2018-11-05T02:12:29.573Z,20.23
2018-11-05T02:15:00.204Z,19.73
2018-11-05T02:17:30.960Z,21.20
2018-11-05T02:20:02.024Z,19.77
2018-11-05T02:22:32.823Z,21.33
2018-11-05T02:25:03.690Z,22.77
2018-11-05T02:27:34.280Z,21.17
2018-11-05T02:30:07.754Z,21.50
2018-11-05T02:32:38.716Z,22.13
2018-11-05T02:35:11.215Z,18.80
2018-11-05T02:37:42.847Z,20.97
2018-11-05T02:40:17.831Z,21.03
2018-11-05T02:42:49.064Z,21.00
2018-11-05T02:45:20.706Z,22.80
2018-11-05T02:47:52.312Z,19.63
2018-11-05T02:50:23.372Z,21.60
2018-11-05T02:52:55.133Z,19.50
2018-11-05T02:55:27.180Z,16.97
2018-11-05T02:57:58.440Z,22.13
2018-11-05T03:00:29.945Z,20.00
2018-11-05T03:03:00.892Z,19.17
2018-11-05T03:05:32.588Z,18.87
2018-11-05T03:08:03.967Z,21.13
2018-11-05T03:10:34.575Z,23.00
2018-11-05T03:13:06.028Z,21.27
2018-11-05T03:15:36.627Z,23.03
2018-11-05T03:18:07.392Z,22.97
2018-11-05T03:20:37.993Z,19.63
2018-11-05T03:23:20.815Z,25.17
2018-11-05T03:25:51.560Z,22.33
2018-11-05T03:28:22.208Z,24.43
2018-11-05T03:30:52.993Z,19.63
2018-11-05T03:33:23.798Z,23.33
2018-11-05T03:35:54.401Z,21.77
2018-11-05T03:38:25.212Z,22.60
2018-11-05T03:40:55.991Z,21.27
2018-11-05T03:43:26.563Z,22.77
2018-11-05T03:45:57.355Z,21.87
2018-11-05T03:48:28.052Z,24.30
2018-11-05T03:50:58.750Z,20.50
2018-11-05T03:53:29.611Z,21.70
2018-11-05T03:56:00.500Z,20.27
2018-11-05T03:58:32.318Z,24.97
2018-11-05T04:01:02.996Z,22.90
2018-11-05T04:03:33.810Z,21.60
2018-11-05T04:06:04.705Z,22.60
2018-11-05T04:08:35.588Z,21.87
2018-11-05T04:11:06.745Z,20.67
2018-11-05T04:13:37.254Z,21.33
2018-11-05T04:16:08.198Z,21.23
2018-11-05T04:18:39.379Z,19.47
2018-11-05T04:21:10.587Z,23.97
2018-11-05T04:23:41.711Z,22.63
2018-11-05T04:26:13.873Z,21.40
2018-11-05T04:28:44.967Z,23.00
2018-11-05T04:31:15.622Z,21.47
2018-11-05T04:33:46.332Z,21.53
2018-11-05T04:36:17.010Z,20.23
2018-11-05T04:38:47.856Z,20.90
2018-11-05T04:41:19.064Z,23.37
2018-11-05T04:43:50.040Z,21.83
2018-11-05T04:46:21.464Z,22.03
2018-11-05T04:48:52.315Z,20.63
2018-11-05T04:51:23.131Z,22.77
2018-11-05T04:53:53.788Z,23.07
2018-11-05T04:56:24.644Z,23.33
2018-11-05T04:58:55.306Z,22.97
2018-11-05T05:01:25.912Z,22.10
2018-11-05T05:03:56.593Z,22.50
2018-11-05T05:06:27.251Z,20.17
2018-11-05T05:08:57.861Z,19.90
2018-11-05T05:11:28.694Z,22.87
2018-11-05T05:13:59.544Z,24.67
2018-11-05T05:16:30.141Z,20.67
2018-11-05T05:19:00.979Z,21.90
2018-11-05T05:21:31.636Z,18.97
2018-11-05T05:24:02.613Z,22.37
2018-11-05T05:26:33.490Z,22.13
2018-11-05T05:29:05.023Z,19.43
2018-11-05T05:31:35.906Z,19.60
2018-11-05T05:34:07.412Z,24.37
2018-11-05T05:36:38.263Z,22.77
2018-11-05T05:39:10.587Z,22.47
2018-11-05T05:41:41.289Z,23.10
2018-11-05T05:44:12.001Z,23.83
2018-11-05T05:46:42.600Z,23.53
2018-11-05T05:49:13.694Z,19.80
2018-11-05T05:51:44.431Z,19.07
2018-11-05T05:54:15.055Z,21.27
2018-11-05T05:56:45.798Z,20.43
2018-11-05T05:59:16.740Z,19.37
2018-11-05T06:01:50.072Z,20.67
2018-11-05T06:04:20.851Z,20.37
2018-11-05T06:06:52.322Z,23.23
2018-11-05T06:09:23.584Z,21.20
2018-11-05T06:11:54.192Z,17.87
2018-11-05T06:14:25.135Z,24.53
2018-11-05T06:16:55.897Z,23.33
2018-11-05T06:19:27.100Z,20.60
2018-11-05T06:21:58.367Z,24.37
2018-11-05T06:24:28.914Z,21.70
2018-11-05T06:27:00.051Z,23.87
2018-11-05T06:29:32.203Z,20.60
2018-11-05T06:32:05.220Z,20.77
2018-11-05T06:34:36.791Z,20.03
2018-11-05T06:37:08.728Z,20.53
2018-11-05T06:39:39.440Z,22.57
2018-11-05T06:42:10.266Z,19.07
2018-11-05T06:44:41.855Z,19.03
2018-11-05T06:47:12.991Z,20.20
2018-11-05T06:49:43.660Z,18.93
2018-11-05T06:52:14.427Z,22.87
2018-11-05T06:54:45.228Z,19.70
2018-11-05T06:57:15.885Z,19.47
2018-11-05T06:59:46.613Z,20.90
2018-11-05T07:02:17.261Z,22.50
2018-11-05T07:04:49.083Z,20.33
2018-11-05T07:07:19.759Z,17.07
2018-11-05T07:09:50.391Z,23.00
2018-11-05T07:12:21.141Z,22.10
2018-11-05T07:14:51.744Z,18.83
2018-11-05T07:17:22.437Z,20.47
2018-11-05T07:19:53.133Z,18.20
2018-11-05T07:22:23.959Z,19.33
2018-11-05T07:24:54.467Z,20.30
2018-11-05T07:27:25.089Z,20.60
2018-11-05T07:29:55.908Z,16.70
2018-11-05T07:32:26.640Z,17.43
2018-11-05T07:34:57.269Z,20.90
2018-11-05T07:37:30.888Z,18.13
2018-11-05T07:40:02.456Z,19.60
2018-11-05T07:42:33.548Z,19.80
2018-11-05T07:45:05.596Z,18.87
2018-11-05T07:47:36.776Z,22.80
2018-11-05T07:50:10.478Z,21.67
2018-11-05T07:52:41.833Z,20.03
2018-11-05T07:55:14.435Z,22.00
2018-11-05T07:57:46.320Z,18.00
2018-11-05T08:00:22.964Z,18.43
2018-11-05T08:02:55.027Z,18.03
2018-11-05T08:05:26.536Z,20.63
2018-11-05T08:07:57.152Z,21.73
2018-11-05T08:10:28.667Z,18.80
2018-11-05T08:12:59.460Z,18.53
2018-11-05T08:15:30.135Z,20.17
2018-11-05T08:18:00.827Z,20.10
2018-11-05T08:20:31.431Z,20.90
2018-11-05T08:23:02.240Z,21.77
2018-11-05T08:25:32.958Z,18.50
2018-11-05T08:28:04.085Z,19.90
2018-11-05T08:30:34.812Z,21.90
2018-11-05T08:33:06.095Z,20.70
2018-11-05T08:35:36.747Z,20.87
2018-11-05T08:38:09.252Z,20.00
2018-11-05T08:40:40.057Z,19.20
2018-11-05T08:43:10.732Z,21.60
2018-11-05T08:45:41.992Z,21.90
2018-11-05T08:48:12.779Z,17.77
2018-11-05T08:50:43.906Z,21.90
2018-11-05T08:53:14.796Z,21.03
2018-11-05T08:55:45.507Z,19.90
2018-11-05T08:58:16.282Z,19.10
2018-11-05T09:00:52.168Z,19.57
2018-11-05T09:03:23.083Z,20.77
2018-11-05T09:05:53.705Z,19.27
2018-11-05T09:08:24.328Z,21.67
2018-11-05T09:10:55.910Z,20.40
2018-11-05T09:13:27.137Z,17.00
2018-11-05T09:15:57.916Z,19.77
2018-11-05T09:18:28.929Z,19.27
2018-11-05T09:20:59.542Z,21.80
2018-11-05T09:23:30.372Z,20.70
2018-11-05T09:26:01.085Z,18.07
2018-11-05T09:28:31.675Z,16.57
2018-11-05T09:31:02.455Z,18.83
2018-11-05T09:33:33.989Z,17.27
2018-11-05T09:36:04.872Z,20.40
2018-11-05T09:38:35.597Z,19.13
2018-11-05T09:41:08.026Z,16.33
2018-11-05T09:43:39.185Z,16.97
2018-11-05T09:46:10.029Z,16.00
2018-11-05T09:48:41.045Z,17.77
2018-11-05T09:51:11.692Z,17.33
2018-11-05T09:53:42.835Z,20.20
2018-11-05T09:56:13.461Z,18.47
2018-11-05T09:58:45.033Z,17.33
2018-11-05T10:01:15.757Z,19.50
2018-11-05T10:03:53.065Z,19.07
2018-11-05T10:06:25.503Z,18.47
2018-11-05T10:08:56.334Z,17.33
2018-11-05T10:11:28.387Z,16.03
2018-11-05T10:13:59.136Z,16.47
2018-11-05T10:16:30.095Z,17.57
2018-11-05T10:19:00.933Z,16.47
2018-11-05T10:21:31.820Z,16.73
2018-11-05T10:24:02.672Z,15.90
2018-11-05T10:26:33.409Z,17.17
2018-11-05T10:29:04.130Z,16.10
2018-11-05T10:31:37.896Z,15.80
2018-11-05T10:34:12.731Z,15.73
2018-11-05T10:36:43.404Z,18.40
2018-11-05T10:39:14.805Z,18.83
2018-11-05T10:41:46.570Z,14.27
2018-11-05T10:44:17.313Z,15.80
2018-11-05T10:46:48.080Z,17.27
2018-11-05T10:49:21.836Z,17.10
2018-11-05T10:51:52.566Z,15.80
2018-11-05T10:54:27.307Z,16.97
2018-11-05T10:56:58.019Z,15.13
2018-11-05T10:59:29.210Z,17.60
2018-11-05T11:02:05.095Z,18.60
2018-11-05T11:04:37.565Z,15.63
2018-11-05T11:07:09.644Z,17.63
2018-11-05T11:09:43.141Z,17.33
2018-11-05T11:12:13.823Z,18.50
2018-11-05T11:14:44.497Z,16.00
2018-11-05T11:17:15.467Z,18.37
2018-11-05T11:19:46.133Z,15.83
2018-11-05T11:22:17.228Z,17.57
2018-11-05T11:24:47.986Z,14.63
2018-11-05T11:27:21.031Z,15.73
2018-11-05T11:32:32.795Z,93.47
2018-11-05T11:35:04.286Z,18.60
2018-11-05T11:37:34.922Z,17.30
2018-11-05T11:40:09.254Z,16.37
2018-11-05T11:42:40.811Z,16.33
2018-11-05T11:45:13.744Z,16.93
2018-11-05T11:47:44.699Z,16.00
2018-11-05T11:50:16.498Z,15.37
2018-11-05T11:52:48.904Z,16.40
2018-11-05T11:55:22.170Z,17.80
2018-11-05T11:57:52.870Z,16.37
2018-11-05T12:00:25.109Z,14.93
2018-11-05T12:02:56.017Z,15.60
2018-11-05T12:05:26.955Z,13.63
2018-11-05T12:07:57.620Z,16.53
2018-11-05T12:10:28.221Z,16.70
2018-11-05T12:12:58.810Z,16.20
2018-11-05T12:15:31.556Z,15.20
2018-11-05T12:18:02.283Z,14.97
2018-11-05T12:20:33.208Z,16.50
2018-11-05T12:23:04.351Z,15.40
2018-11-05T12:25:35.008Z,14.90
2018-11-05T12:28:06.458Z,17.37
2018-11-05T12:30:37.308Z,15.53
2018-11-05T12:33:08.788Z,15.13
2018-11-05T12:35:39.474Z,14.80
2018-11-05T12:38:10.245Z,14.50
2018-11-05T12:40:41.058Z,14.27
2018-11-05T12:43:11.701Z,14.63
2018-11-05T12:45:42.507Z,13.53
2018-11-05T12:48:13.276Z,14.00
2018-11-05T12:50:44.364Z,14.80
2018-11-05T12:53:15.511Z,14.33
2018-11-05T12:55:48.162Z,15.97
2018-11-05T12:58:23.333Z,14.33
2018-11-05T13:00:54.215Z,16.80
2018-11-05T13:03:24.698Z,17.40
2018-11-05T13:05:55.459Z,15.60
2018-11-05T13:08:29.560Z,14.87
2018-11-05T13:11:00.415Z,14.80
2018-11-05T13:13:31.028Z,16.40
2018-11-05T13:16:01.859Z,14.83
2018-11-05T13:18:35.766Z,16.10
2018-11-05T13:21:06.667Z,15.73
2018-11-05T13:23:43.549Z,13.50
2018-11-05T13:26:15.377Z,15.33
2018-11-05T13:28:46.193Z,16.00
2018-11-05T13:31:17.436Z,14.50
2018-11-05T13:33:48.944Z,15.33
2018-11-05T13:36:21.103Z,12.90
2018-11-05T13:38:51.893Z,13.70
2018-11-05T13:41:23.643Z,13.43
2018-11-05T13:43:54.384Z,13.50
2018-11-05T13:46:25.421Z,13.43
2018-11-05T13:48:58.749Z,14.60
2018-11-05T13:51:31.165Z,15.10
2018-11-05T13:54:01.835Z,13.90
2018-11-05T13:56:32.769Z,13.93
2018-11-05T13:59:03.621Z,15.30
2018-11-05T14:01:34.448Z,14.03
2018-11-05T14:04:07.121Z,14.53
2018-11-05T14:06:37.784Z,12.70
2018-11-05T14:09:09.919Z,12.67
2018-11-05T14:11:43.950Z,14.77
2018-11-05T14:14:15.297Z,12.40
2018-11-05T14:16:47.510Z,12.70
2018-11-05T14:19:18.213Z,13.07
2018-11-05T14:21:49.192Z,13.90
2018-11-05T14:24:21.653Z,12.67
2018-11-05T14:26:54.076Z,11.23
2018-11-05T14:29:27.747Z,11.37
2018-11-05T14:31:58.400Z,13.40
2018-11-05T14:34:29.343Z,12.20
2018-11-05T14:37:00.186Z,12.27
2018-11-05T14:39:36.812Z,10.90
2018-11-05T14:42:07.831Z,11.60
2018-11-05T14:44:38.488Z,12.07
2018-11-05T14:47:09.129Z,12.00
2018-11-05T14:49:40.151Z,15.20
2018-11-05T14:52:10.895Z,11.00
2018-11-05T14:54:42.033Z,11.90
2018-11-05T14:57:12.661Z,11.67
2018-11-05T14:59:43.452Z,13.13
2018-11-05T15:02:19.498Z,14.63
2018-11-05T15:04:52.890Z,12.93
2018-11-05T15:07:24.675Z,10.43
2018-11-05T15:09:58.332Z,15.20
2018-11-05T15:12:29.544Z,11.40
2018-11-05T15:15:00.220Z,14.33
2018-11-05T15:17:30.893Z,14.87
2018-11-05T15:20:02.235Z,14.50
2018-11-05T15:22:32.500Z,12.67
2018-11-05T15:25:06.989Z,13.60
2018-11-05T15:27:38.491Z,13.30
2018-11-05T15:30:15.057Z,11.10
2018-11-05T15:32:46.281Z,16.30
2018-11-05T15:35:17.547Z,16.97
2018-11-05T15:37:50.742Z,25.20
2018-11-05T15:40:22.560Z,19.50
2018-11-05T15:42:54.439Z,18.37
2018-11-05T15:45:25.698Z,29.77
2018-11-05T15:47:57.002Z,22.60
2018-11-05T15:50:27.664Z,20.57
2018-11-05T15:53:07.808Z,20.73
2018-11-05T15:55:38.451Z,19.03
2018-11-05T15:58:09.108Z,21.27
2018-11-05T16:00:40.206Z,20.30
2018-11-05T16:03:10.842Z,20.17
2018-11-05T16:05:41.572Z,19.70
2018-11-05T16:08:12.412Z,24.87
2018-11-05T16:10:43.179Z,21.30
2018-11-05T16:13:13.852Z,20.63
2018-11-05T16:15:45.160Z,34.27
2018-11-05T16:18:15.973Z,26.40
2018-11-05T16:20:46.772Z,27.27
2018-11-05T16:23:17.408Z,22.17
2018-11-05T16:25:48.076Z,19.67
2018-11-05T16:28:18.940Z,21.07
2018-11-05T16:30:49.712Z,23.37
2018-11-05T16:33:20.487Z,24.50
2018-11-05T16:35:51.387Z,21.63
2018-11-05T16:38:22.151Z,19.83
2018-11-05T16:40:52.966Z,22.40
2018-11-05T16:43:25.274Z,23.70
2018-11-05T16:45:56.845Z,22.90
2018-11-05T16:48:27.649Z,19.53
2018-11-05T16:51:00.215Z,22.83
2018-11-05T16:53:31.385Z,21.70
2018-11-05T16:56:03.101Z,24.40
2018-11-05T16:58:33.856Z,25.47
2018-11-05T17:01:04.682Z,18.80
2018-11-05T17:03:37.267Z,18.37
2018-11-05T17:06:07.868Z,20.60
2018-11-05T17:08:39.132Z,20.10
2018-11-05T17:11:09.748Z,22.20
2018-11-05T17:13:40.603Z,21.47
2018-11-05T17:16:11.308Z,16.13
2018-11-05T17:18:42.068Z,17.13
2018-11-05T17:21:12.796Z,19.20
2018-11-05T17:23:43.432Z,20.93
2018-11-05T17:26:14.060Z,18.83
2018-11-05T17:28:44.876Z,22.33
2018-11-05T17:31:15.528Z,18.80
2018-11-05T17:33:46.024Z,19.67
2018-11-05T17:36:16.792Z,20.50
2018-11-05T17:38:47.404Z,21.33
2018-11-05T17:41:18.186Z,16.30
2018-11-05T17:43:48.962Z,17.37
2018-11-05T17:46:19.818Z,21.33
2018-11-05T17:48:50.536Z,23.80
2018-11-05T17:51:21.170Z,22.97
2018-11-05T17:53:51.595Z,25.97
2018-11-05T17:56:22.262Z,28.13
2018-11-05T17:58:52.888Z,28.13
2018-11-05T18:01:23.627Z,23.90
2018-11-05T18:03:54.581Z,23.20
2018-11-05T18:06:25.580Z,36.70
2018-11-05T18:08:56.605Z,27.00
2018-11-05T18:11:30.339Z,26.23
2018-11-05T18:14:02.696Z,22.40
2018-11-05T18:16:33.542Z,22.83
2018-11-05T18:19:04.652Z,22.83
2018-11-05T18:21:35.309Z,23.40
2018-11-05T18:24:09.609Z,25.63
2018-11-05T18:26:42.829Z,26.40
2018-11-05T18:29:14.105Z,32.90
2018-11-05T18:31:45.006Z,31.47
2018-11-05T18:34:15.635Z,26.17
2018-11-05T18:36:46.265Z,25.83
2018-11-05T18:39:17.078Z,23.17
2018-11-05T18:41:47.927Z,25.13
2018-11-05T18:44:18.770Z,23.57
2018-11-05T18:46:49.531Z,20.10
2018-11-05T18:49:20.345Z,24.47
2018-11-05T18:51:52.089Z,27.20
2018-11-05T18:54:22.845Z,26.77
2018-11-05T18:56:54.727Z,28.43
2018-11-05T18:59:25.496Z,27.70
2018-11-05T19:01:56.586Z,36.97
2018-11-05T19:04:27.261Z,28.20
2018-11-05T19:06:58.020Z,29.13
2018-11-05T19:09:28.843Z,27.10
2018-11-05T19:11:59.877Z,30.40
2018-11-05T19:14:33.797Z,28.57
2018-11-05T19:17:04.457Z,27.10
2018-11-05T19:19:35.243Z,27.00
2018-11-05T19:22:06.526Z,27.50
2018-11-05T19:24:37.483Z,27.57
2018-11-05T19:27:08.185Z,32.13
2018-11-05T19:29:39.986Z,34.87
2018-11-05T19:32:10.752Z,34.00
2018-11-05T19:34:41.440Z,38.00
2018-11-05T19:37:12.454Z,37.70
2018-11-05T19:39:43.386Z,38.33
2018-11-05T19:42:14.718Z,39.77
2018-11-05T19:44:48.253Z,31.50
2018-11-05T19:47:19.076Z,37.50
2018-11-05T19:49:51.133Z,29.10
2018-11-05T19:52:23.533Z,32.10
2018-11-05T19:54:54.450Z,35.70
2018-11-05T19:57:25.288Z,37.80
2018-11-05T19:59:56.026Z,33.70
2018-11-05T20:02:29.647Z,35.37
2018-11-05T20:05:00.536Z,33.10
2018-11-05T20:07:31.199Z,30.17
2018-11-05T20:10:01.916Z,30.87
2018-11-05T20:12:32.911Z,31.10
2018-11-05T20:15:03.725Z,29.07
2018-11-05T20:17:35.135Z,31.20
2018-11-05T20:20:08.284Z,32.30
2018-11-05T20:22:39.375Z,28.23
2018-11-05T20:25:10.571Z,33.77
2018-11-05T20:27:42.067Z,31.90
2018-11-05T20:30:17.541Z,32.60
2018-11-05T20:32:49.419Z,34.33
2018-11-05T20:35:20.006Z,26.67
2018-11-05T20:37:51.830Z,31.33
2018-11-05T20:40:23.100Z,30.73
2018-11-05T20:42:55.122Z,29.10
2018-11-05T20:45:28.290Z,28.40
2018-11-05T20:47:59.500Z,31.47
2018-11-05T20:50:30.366Z,26.17
2018-11-05T20:53:01.720Z,27.03
2018-11-05T20:55:33.787Z,32.33
2018-11-05T20:58:04.472Z,27.23
2018-11-05T21:00:35.140Z,30.80
2018-11-05T21:03:05.930Z,27.57
2018-11-05T21:05:36.606Z,24.60
2018-11-05T21:08:07.358Z,26.67
2018-11-05T21:10:38.149Z,27.50
2018-11-05T21:13:09.075Z,23.73
2018-11-05T21:15:39.824Z,27.80
2018-11-05T21:18:10.516Z,25.53
2018-11-05T21:20:41.046Z,28.30
2018-11-05T21:23:11.885Z,24.67
2018-11-05T21:25:42.889Z,26.00
2018-11-05T21:28:13.591Z,24.20
2018-11-05T21:30:44.209Z,25.40
2018-11-05T21:33:14.839Z,25.00
2018-11-05T21:35:45.708Z,27.67
2018-11-05T21:38:16.287Z,24.90
2018-11-05T21:40:47.217Z,25.97
2018-11-05T21:43:18.099Z,24.53
2018-11-05T21:45:52.203Z,27.60
2018-11-05T21:48:22.791Z,29.13
2018-11-05T21:50:53.864Z,28.37
2018-11-05T21:53:24.477Z,28.67
2018-11-05T21:55:55.444Z,28.70
2018-11-05T21:58:26.271Z,28.30
2018-11-05T22:00:57.005Z,24.17
2018-11-05T22:03:27.830Z,27.50
2018-11-05T22:05:58.782Z,25.87
2018-11-05T22:08:29.495Z,28.60
2018-11-05T22:11:00.236Z,24.30
2018-11-05T22:13:31.887Z,23.50
2018-11-05T22:16:02.820Z,22.37
2018-11-05T22:18:33.462Z,21.73
2018-11-05T22:21:04.470Z,32.27
2018-11-05T22:23:35.296Z,27.73
2018-11-05T22:26:06.398Z,25.80
2018-11-05T22:28:37.132Z,22.53
2018-11-05T22:31:08.492Z,23.53
2018-11-05T22:33:39.948Z,23.27
2018-11-05T22:36:10.745Z,25.73
2018-11-05T22:38:41.580Z,27.63
2018-11-05T22:41:13.025Z,24.43
2018-11-05T22:43:43.963Z,29.87
2018-11-05T22:46:15.096Z,30.87
2018-11-05T22:48:46.371Z,26.90
2018-11-05T22:51:17.862Z,22.17
2018-11-05T22:53:51.047Z,24.13
2018-11-05T22:56:21.913Z,25.63
2018-11-05T22:58:52.583Z,25.03
2018-11-05T23:01:28.742Z,25.27
2018-11-05T23:04:02.719Z,24.33
2018-11-05T23:06:34.143Z,26.03
2018-11-05T23:09:06.209Z,23.70
2018-11-05T23:11:37.540Z,23.40
2018-11-05T23:14:08.236Z,24.93
2018-11-05T23:16:39.051Z,24.30
2018-11-05T23:19:09.737Z,23.77
2018-11-05T23:21:40.313Z,26.40
2018-11-05T23:24:10.962Z,23.27
2018-11-05T23:26:42.705Z,26.30
2018-11-05T23:29:13.356Z,23.67
2018-11-05T23:31:43.971Z,24.53
2018-11-05T23:34:14.694Z,25.07
2018-11-05T23:36:45.483Z,26.77
2018-11-05T23:39:16.196Z,26.00
2018-11-05T23:41:46.896Z,23.47
2018-11-05T23:44:17.766Z,24.20
2018-11-05T23:46:48.564Z,22.43
2018-11-05T23:49:19.211Z,19.73
2018-11-05T23:51:50.216Z,26.30
2018-11-05T23:54:21.183Z,45.80
2018-11-05T23:56:51.764Z,29.87
2018-11-05T23:59:22.555Z,35.23
